PWSweather.com
Personal Weather Stations
Station Observations
KMOCREVE3
Whispering Hills, Creve Coeur, MO 63146

Whispering HillsCreve Coeur, MO 63146

Lat: 38.68, Lon: -90.463

Elevation: 530

Station Type: Vantage Vue

Latest ConditionsUpdated 6:20:01 PM CST Monday, Nov 24, 2014
Currently Today's Max Today's Min Today's Average
Temperature 39.3°F4.1°C 54.8°F12.7°C 36.1°F2.3°C 40.6°F4.8°C
Dew Point 30.3°F-0.9°C 54.2°F12.3°C 28.1°F-2.2°C 34.3°F1.3°C
Winds 1.0 mph NNW1.6 kmh NNW 8.0 mph NNW12.9 kmh NNW - 3.6 mph 5.8 kmh
Wind Gusts 6.0 mph9.7 kmh 24.0 mph38.6 kmh - -
Humidity 70% 98% 62% 79%
Pressure 29.91 in1012.9 mb 29.91 in1012.9 mb 29.17 in987.8 mb -
Precipitation - 0.50 in12.7 mm - -
Hour Temp Dew Point Humidity Winds Wind Gusts Pressure Precip Precip Rate Daily Precip Total
06:20 PM 39.3°F4.1°C 30.3°F-0.9°C 70% 1.0 mph NNW1.6 kmh NNW 6.0 mph9.7 kmh 29.91 in1012.9 mb 0.00 in0.0 mm 0.00 in/hr0.0 mm/hr 0.50 in12.7 mm
06:10 PM 39.2°F4.0°C 30.2°F-1.0°C 70% 1.0 mph NW1.6 kmh NW 5.0 mph8.0 kmh 29.91 in1012.9 mb 0.00 in0.0 mm 0.00 in/hr0.0 mm/hr 0.50 in12.7 mm
06:00 PM 39.1°F3.9°C 30.1°F-1.1°C 70% 1.0 mph NW1.6 kmh NW 5.0 mph8.0 kmh 29.90 in1012.5 mb 0.00 in0.0 mm 0.00 in/hr0.0 mm/hr 0.50 in12.7 mm
05:50 PM 39.1°F3.9°C 30.1°F-1.1°C 70% 1.0 mph NNW1.6 kmh NNW 2.0 mph3.2 kmh 29.89 in1012.2 mb 0.00 in0.0 mm 0.00 in/hr0.0 mm/hr 0.50 in12.7 mm
05:40 PM 39.2°F4.0°C 29.9°F-1.2°C 69% 1.0 mph NW1.6 kmh NW 3.0 mph4.8 kmh 29.89 in1012.2 mb 0.00 in0.0 mm 0.00 in/hr0.0 mm/hr 0.50 in12.7 mm
05:30 PM 39.3°F4.1°C 29.6°F-1.3°C 68% 1.0 mph NW1.6 kmh NW 4.0 mph6.4 kmh 29.88 in1011.9 mb 0.00 in0.0 mm 0.00 in/hr0.0 mm/hr 0.50 in12.7 mm
05:20 PM 39.5°F4.2°C 29.4°F-1.4°C 67% 1.0 mph NW1.6 kmh NW 3.0 mph4.8 kmh 29.88 in1011.9 mb 0.00 in0.0 mm 0.00 in/hr0.0 mm/hr 0.50 in12.7 mm
05:10 PM 39.7°F4.3°C 29.3°F-1.5°C 66% 1.0 mph W1.6 kmh W 4.0 mph6.4 kmh 29.87 in1011.5 mb 0.00 in0.0 mm 0.00 in/hr0.0 mm/hr 0.50 in12.7 mm
05:00 PM 39.8°F4.3°C 29.4°F-1.4°C 66% 2.0 mph NW3.2 kmh NW 7.0 mph11.3 kmh 29.86 in1011.2 mb 0.00 in0.0 mm 0.00 in/hr0.0 mm/hr 0.50 in12.7 mm
04:50 PM 39.9°F4.4°C 29.1°F-1.6°C 65% 2.0 mph SSW3.2 kmh SSW 5.0 mph8.0 kmh 29.86 in1011.2 mb 0.00 in0.0 mm 0.00 in/hr0.0 mm/hr 0.50 in12.7 mm
04:40 PM 40.0°F4.4°C 28.8°F-1.8°C 64% 2.0 mph WSW3.2 kmh WSW 7.0 mph11.3 kmh 29.85 in1010.8 mb 0.00 in0.0 mm 0.00 in/hr0.0 mm/hr 0.50 in12.7 mm
04:30 PM 40.0°F4.4°C 28.8°F-1.8°C 64% 3.0 mph WNW4.8 kmh WNW 8.0 mph12.9 kmh 29.85 in1010.8 mb 0.00 in0.0 mm 0.00 in/hr0.0 mm/hr 0.50 in12.7 mm
04:20 PM 40.0°F4.4°C 28.8°F-1.8°C 64% 3.0 mph NW4.8 kmh NW 9.0 mph14.5 kmh 29.84 in1010.5 mb 0.00 in0.0 mm 0.00 in/hr0.0 mm/hr 0.50 in12.7 mm
04:10 PM 40.1°F4.5°C 28.5°F-1.9°C 63% 3.0 mph W4.8 kmh W 8.0 mph12.9 kmh 29.84 in1010.5 mb 0.00 in0.0 mm 0.00 in/hr0.0 mm/hr 0.50 in12.7 mm
04:00 PM 40.1°F4.5°C 28.9°F-1.7°C 64% 2.0 mph WNW3.2 kmh WNW 6.0 mph9.7 kmh 29.83 in1010.2 mb 0.00 in0.0 mm 0.00 in/hr0.0 mm/hr 0.50 in12.7 mm
03:50 PM 40.1°F4.5°C 28.1°F-2.2°C 62% 3.0 mph WNW4.8 kmh WNW 11.0 mph17.7 kmh 29.83 in1010.2 mb 0.00 in0.0 mm 0.00 in/hr0.0 mm/hr 0.50 in12.7 mm
03:40 PM 40.3°F4.6°C 28.3°F-2.1°C 62% 4.0 mph WNW6.4 kmh WNW 10.0 mph16.1 kmh 29.83 in1010.2 mb 0.00 in0.0 mm 0.00 in/hr0.0 mm/hr 0.50 in12.7 mm
03:30 PM 40.6°F4.8°C 28.6°F-1.9°C 62% 3.0 mph NW4.8 kmh NW 10.0 mph16.1 kmh 29.82 in1009.8 mb 0.00 in0.0 mm 0.00 in/hr0.0 mm/hr 0.50 in12.7 mm
03:20 PM 40.9°F4.9°C 28.9°F-1.7°C 62% 5.0 mph NW8.0 kmh NW 15.0 mph24.1 kmh 29.82 in1009.8 mb 0.00 in0.0 mm 0.00 in/hr0.0 mm/hr 0.50 in12.7 mm
03:10 PM 40.6°F4.8°C 29.0°F-1.7°C 63% 3.0 mph NW4.8 kmh NW 17.0 mph27.4 kmh 29.81 in1009.5 mb 0.00 in0.0 mm 0.00 in/hr0.0 mm/hr 0.50 in12.7 mm
03:00 PM 39.8°F4.3°C 29.0°F-1.7°C 65% 4.0 mph W6.4 kmh W 11.0 mph17.7 kmh 29.81 in1009.5 mb 0.00 in0.0 mm 0.00 in/hr0.0 mm/hr 0.50 in12.7 mm
02:50 PM 39.4°F4.1°C 29.0°F-1.7°C 66% 3.0 mph W4.8 kmh W 10.0 mph16.1 kmh 29.80 in1009.1 mb 0.00 in0.0 mm 0.00 in/hr0.0 mm/hr 0.50 in12.7 mm
02:40 PM 39.4°F4.1°C 29.0°F-1.7°C 66% 4.0 mph WNW6.4 kmh WNW 11.0 mph17.7 kmh 29.80 in1009.1 mb 0.00 in0.0 mm 0.00 in/hr0.0 mm/hr 0.50 in12.7 mm
02:30 PM 39.5°F4.2°C 28.7°F-1.8°C 65% 4.0 mph WNW6.4 kmh WNW 13.0 mph20.9 kmh 29.79 in1008.8 mb 0.00 in0.0 mm 0.00 in/hr0.0 mm/hr 0.50 in12.7 mm
02:20 PM 39.5°F4.2°C 28.7°F-1.8°C 65% 4.0 mph W6.4 kmh W 13.0 mph20.9 kmh 29.78 in1008.5 mb 0.00 in0.0 mm 0.00 in/hr0.0 mm/hr 0.50 in12.7 mm
02:10 PM 39.2°F4.0°C 28.8°F-1.8°C 66% 3.0 mph W4.8 kmh W 9.0 mph14.5 kmh 29.78 in1008.5 mb 0.00 in0.0 mm 0.00 in/hr0.0 mm/hr 0.50 in12.7 mm
02:00 PM 39.0°F3.9°C 29.0°F-1.7°C 67% 5.0 mph NW8.0 kmh NW 13.0 mph20.9 kmh 29.77 in1008.1 mb 0.00 in0.0 mm 0.00 in/hr0.0 mm/hr 0.50 in12.7 mm
01:50 PM 38.8°F3.8°C 29.1°F-1.6°C 68% 5.0 mph NNW8.0 kmh NNW 16.0 mph25.7 kmh 29.76 in1007.8 mb 0.00 in0.0 mm 0.00 in/hr0.0 mm/hr 0.50 in12.7 mm
01:40 PM 38.9°F3.8°C 29.9°F-1.2°C 70% 3.0 mph NW4.8 kmh NW 10.0 mph16.1 kmh 29.76 in1007.8 mb 0.00 in0.0 mm 0.00 in/hr0.0 mm/hr 0.50 in12.7 mm
01:30 PM 38.9°F3.8°C 29.6°F-1.3°C 69% 4.0 mph NW6.4 kmh NW 11.0 mph17.7 kmh 29.75 in1007.5 mb 0.00 in0.0 mm 0.00 in/hr0.0 mm/hr 0.50 in12.7 mm
01:20 PM 39.0°F3.9°C 29.7°F-1.3°C 69% 4.0 mph NW6.4 kmh NW 12.0 mph19.3 kmh 29.75 in1007.5 mb 0.00 in0.0 mm 0.00 in/hr0.0 mm/hr 0.50 in12.7 mm
01:10 PM 39.0°F3.9°C 29.7°F-1.3°C 69% 4.0 mph NW6.4 kmh NW 15.0 mph24.1 kmh 29.74 in1007.1 mb 0.00 in0.0 mm 0.00 in/hr0.0 mm/hr 0.50 in12.7 mm
01:00 PM 39.0°F3.9°C 29.7°F-1.3°C 69% 4.0 mph NW6.4 kmh NW 10.0 mph16.1 kmh 29.74 in1007.1 mb 0.00 in0.0 mm 0.00 in/hr0.0 mm/hr 0.50 in12.7 mm
12:50 PM 38.9°F3.8°C 30.3°F-0.9°C 71% 4.0 mph NW6.4 kmh NW 11.0 mph17.7 kmh 29.73 in1006.8 mb 0.00 in0.0 mm 0.00 in/hr0.0 mm/hr 0.50 in12.7 mm
12:40 PM 38.9°F3.8°C 30.3°F-0.9°C 71% 3.0 mph WNW4.8 kmh WNW 9.0 mph14.5 kmh 29.73 in1006.8 mb 0.00 in0.0 mm 0.00 in/hr0.0 mm/hr 0.50 in12.7 mm
12:30 PM 38.9°F3.8°C 29.6°F-1.3°C 69% 4.0 mph SW6.4 kmh SW 8.0 mph12.9 kmh 29.72 in1006.4 mb 0.00 in0.0 mm 0.00 in/hr0.0 mm/hr 0.50 in12.7 mm
12:20 PM 38.9°F3.8°C 29.9°F-1.2°C 70% 3.0 mph NW4.8 kmh NW 10.0 mph16.1 kmh 29.71 in1006.1 mb 0.00 in0.0 mm 0.00 in/hr0.0 mm/hr 0.50 in12.7 mm
12:10 PM 38.8°F3.8°C 29.5°F-1.4°C 69% 5.0 mph WNW8.0 kmh WNW 17.0 mph27.4 kmh 29.70 in1005.8 mb 0.00 in0.0 mm 0.00 in/hr0.0 mm/hr 0.50 in12.7 mm
12:00 PM 38.8°F3.8°C 29.8°F-1.2°C 70% 4.0 mph WNW6.4 kmh WNW 10.0 mph16.1 kmh 29.70 in1005.8 mb 0.00 in0.0 mm 0.00 in/hr0.0 mm/hr 0.50 in12.7 mm
11:50 AM 38.7°F3.7°C 29.4°F-1.4°C 69% 4.0 mph WNW6.4 kmh WNW 12.0 mph19.3 kmh 29.70 in1005.8 mb 0.00 in0.0 mm 0.00 in/hr0.0 mm/hr 0.50 in12.7 mm
11:40 AM 38.9°F3.8°C 29.6°F-1.3°C 69% 5.0 mph WNW8.0 kmh WNW 16.0 mph25.7 kmh 29.69 in1005.4 mb 0.00 in0.0 mm 0.00 in/hr0.0 mm/hr 0.50 in12.7 mm
11:30 AM 38.9°F3.8°C 29.6°F-1.3°C 69% 4.0 mph W6.4 kmh W 10.0 mph16.1 kmh 29.69 in1005.4 mb 0.00 in0.0 mm 0.00 in/hr0.0 mm/hr 0.50 in12.7 mm
11:20 AM 38.4°F3.6°C 29.5°F-1.4°C 70% 4.0 mph W6.4 kmh W 10.0 mph16.1 kmh 29.68 in1005.1 mb 0.00 in0.0 mm 0.00 in/hr0.0 mm/hr 0.50 in12.7 mm
11:10 AM 38.6°F3.7°C 29.3°F-1.5°C 69% 6.0 mph NW9.7 kmh NW 15.0 mph24.1 kmh 29.68 in1005.1 mb 0.00 in0.0 mm 0.00 in/hr0.0 mm/hr 0.50 in12.7 mm
11:00 AM 38.7°F3.7°C 29.0°F-1.7°C 68% 6.0 mph NW9.7 kmh NW 18.0 mph29.0 kmh 29.68 in1005.1 mb 0.00 in0.0 mm 0.00 in/hr0.0 mm/hr 0.50 in12.7 mm
10:50 AM 38.5°F3.6°C 29.6°F-1.3°C 70% 6.0 mph NW9.7 kmh NW 17.0 mph27.4 kmh 29.68 in1005.1 mb 0.00 in0.0 mm 0.00 in/hr0.0 mm/hr 0.50 in12.7 mm
10:40 AM 38.4°F3.6°C 29.5°F-1.4°C 70% 4.0 mph W6.4 kmh W 13.0 mph20.9 kmh 29.68 in1005.1 mb 0.00 in0.0 mm 0.00 in/hr0.0 mm/hr 0.50 in12.7 mm
10:30 AM 38.4°F3.6°C 30.2°F-1.0°C 72% 4.0 mph NW6.4 kmh NW 11.0 mph17.7 kmh 29.68 in1005.1 mb 0.00 in0.0 mm 0.00 in/hr0.0 mm/hr 0.50 in12.7 mm
10:20 AM 38.3°F3.5°C 29.4°F-1.4°C 70% 4.0 mph NW6.4 kmh NW 12.0 mph19.3 kmh 29.67 in1004.7 mb 0.00 in0.0 mm 0.00 in/hr0.0 mm/hr 0.50 in12.7 mm
10:10 AM 38.1°F3.4°C 29.9°F-1.2°C 72% 4.0 mph NW6.4 kmh NW 12.0 mph19.3 kmh 29.67 in1004.7 mb 0.00 in0.0 mm 0.00 in/hr0.0 mm/hr 0.50 in12.7 mm
10:00 AM 37.9°F3.3°C 29.7°F-1.3°C 72% 3.0 mph NW4.8 kmh NW 10.0 mph16.1 kmh 29.66 in1004.4 mb 0.00 in0.0 mm 0.00 in/hr0.0 mm/hr 0.50 in12.7 mm
09:50 AM 37.7°F3.2°C 29.8°F-1.2°C 73% 2.0 mph WNW3.2 kmh WNW 8.0 mph12.9 kmh 29.66 in1004.4 mb 0.00 in0.0 mm 0.00 in/hr0.0 mm/hr 0.50 in12.7 mm
09:40 AM 37.4°F3.0°C 29.9°F-1.2°C 74% 4.0 mph NW6.4 kmh NW 13.0 mph20.9 kmh 29.65 in1004.1 mb 0.00 in0.0 mm 0.00 in/hr0.0 mm/hr 0.50 in12.7 mm
09:30 AM 37.2°F2.9°C 30.0°F-1.1°C 75% 4.0 mph NW6.4 kmh NW 10.0 mph16.1 kmh 29.65 in1004.1 mb 0.00 in0.0 mm 0.00 in/hr0.0 mm/hr 0.50 in12.7 mm
09:20 AM 37.0°F2.8°C 30.1°F-1.1°C 76% 4.0 mph WSW6.4 kmh WSW 15.0 mph24.1 kmh 29.64 in1003.7 mb 0.00 in0.0 mm 0.00 in/hr0.0 mm/hr 0.50 in12.7 mm
09:10 AM 36.9°F2.7°C 29.7°F-1.3°C 75% 4.0 mph NW6.4 kmh NW 15.0 mph24.1 kmh 29.64 in1003.7 mb 0.00 in0.0 mm 0.00 in/hr0.0 mm/hr 0.50 in12.7 mm
09:00 AM 36.9°F2.7°C 30.4°F-0.9°C 77% 3.0 mph WNW4.8 kmh WNW 16.0 mph25.7 kmh 29.63 in1003.4 mb 0.00 in0.0 mm 0.00 in/hr0.0 mm/hr 0.50 in12.7 mm
08:50 AM 36.9°F2.7°C 30.7°F-0.7°C 78% 4.0 mph WSW6.4 kmh WSW 12.0 mph19.3 kmh 29.63 in1003.4 mb 0.00 in0.0 mm 0.00 in/hr0.0 mm/hr 0.50 in12.7 mm
08:40 AM 37.1°F2.8°C 30.9°F-0.6°C 78% 5.0 mph W8.0 kmh W 13.0 mph20.9 kmh 29.61 in1002.7 mb 0.00 in0.0 mm 0.00 in/hr0.0 mm/hr 0.50 in12.7 mm
08:30 AM 37.3°F2.9°C 31.1°F-0.5°C 78% 4.0 mph NNW6.4 kmh NNW 10.0 mph16.1 kmh 29.61 in1002.7 mb 0.00 in0.0 mm 0.00 in/hr0.0 mm/hr 0.50 in12.7 mm
08:20 AM 37.7°F3.2°C 31.1°F-0.5°C 77% 6.0 mph WNW9.7 kmh WNW 18.0 mph29.0 kmh 29.59 in1002.0 mb 0.00 in0.0 mm 0.00 in/hr0.0 mm/hr 0.50 in12.7 mm
08:10 AM 38.0°F3.3°C 31.7°F-0.2°C 78% 6.0 mph NW9.7 kmh NW 17.0 mph27.4 kmh 29.58 in1001.7 mb 0.00 in0.0 mm 0.00 in/hr0.0 mm/hr 0.50 in12.7 mm
08:00 AM 38.3°F3.5°C 33.3°F0.7°C 82% 2.0 mph WNW3.2 kmh WNW 10.0 mph16.1 kmh 29.57 in1001.4 mb 0.00 in0.0 mm 0.00 in/hr0.0 mm/hr 0.50 in12.7 mm
07:50 AM 38.6°F3.7°C 33.0°F0.6°C 80% 3.0 mph NW4.8 kmh NW 14.0 mph22.5 kmh 29.56 in1001.0 mb 0.00 in0.0 mm 0.00 in/hr0.0 mm/hr 0.50 in12.7 mm
07:40 AM 38.9°F3.8°C 33.6°F0.9°C 81% 4.0 mph NW6.4 kmh NW 10.0 mph16.1 kmh 29.55 in1000.7 mb 0.00 in0.0 mm 0.00 in/hr0.0 mm/hr 0.50 in12.7 mm
07:30 AM 39.3°F4.1°C 34.3°F1.3°C 82% 5.0 mph NNW8.0 kmh NNW 16.0 mph25.7 kmh 29.53 in1000.0 mb 0.00 in0.0 mm 0.00 in/hr0.0 mm/hr 0.50 in12.7 mm
07:20 AM 39.7°F4.3°C 35.0°F1.7°C 83% 5.0 mph WNW8.0 kmh WNW 14.0 mph22.5 kmh 29.53 in1000.0 mb 0.00 in0.0 mm 0.00 in/hr0.0 mm/hr 0.50 in12.7 mm
07:10 AM 39.5°F4.2°C 35.1°F1.7°C 84% 4.0 mph NW6.4 kmh NW 16.0 mph25.7 kmh 29.52 in999.7 mb 0.00 in0.0 mm 0.00 in/hr0.0 mm/hr 0.50 in12.7 mm
07:00 AM 38.8°F3.8°C 35.8°F2.1°C 89% 3.0 mph WNW4.8 kmh WNW 13.0 mph20.9 kmh 29.51 in999.3 mb 0.00 in0.0 mm 0.00 in/hr0.0 mm/hr 0.50 in12.7 mm
06:50 AM 38.4°F3.6°C 36.0°F2.2°C 91% 3.0 mph WNW4.8 kmh WNW 7.0 mph11.3 kmh 29.50 in999.0 mb 0.00 in0.0 mm 0.00 in/hr0.0 mm/hr 0.50 in12.7 mm
06:40 AM 38.1°F3.4°C 35.7°F2.1°C 91% 2.0 mph W3.2 kmh W 7.0 mph11.3 kmh 29.49 in998.6 mb 0.00 in0.0 mm 0.00 in/hr0.0 mm/hr 0.50 in12.7 mm
06:30 AM 37.9°F3.3°C 35.5°F1.9°C 91% 2.0 mph W3.2 kmh W 7.0 mph11.3 kmh 29.48 in998.3 mb 0.00 in0.0 mm 0.00 in/hr0.0 mm/hr 0.50 in12.7 mm
06:20 AM 37.8°F3.2°C 35.4°F1.9°C 91% 2.0 mph WSW3.2 kmh WSW 5.0 mph8.0 kmh 29.47 in998.0 mb 0.00 in0.0 mm 0.00 in/hr0.0 mm/hr 0.50 in12.7 mm
06:10 AM 37.6°F3.1°C 35.2°F1.8°C 91% 1.0 mph WSW1.6 kmh WSW 6.0 mph9.7 kmh 29.47 in998.0 mb 0.00 in0.0 mm 0.00 in/hr0.0 mm/hr 0.50 in12.7 mm
06:00 AM 37.5°F3.1°C 35.1°F1.7°C 91% 2.0 mph WNW3.2 kmh WNW 7.0 mph11.3 kmh 29.47 in998.0 mb 0.00 in0.0 mm 0.00 in/hr0.0 mm/hr 0.50 in12.7 mm
05:50 AM 37.2°F2.9°C 35.1°F1.7°C 92% 2.0 mph NW3.2 kmh NW 9.0 mph14.5 kmh 29.46 in997.6 mb 0.00 in0.0 mm 0.00 in/hr0.0 mm/hr 0.50 in12.7 mm
05:40 AM 36.9°F2.7°C 34.8°F1.6°C 92% 2.0 mph NW3.2 kmh NW 7.0 mph11.3 kmh 29.46 in997.6 mb 0.00 in0.0 mm 0.00 in/hr0.0 mm/hr 0.50 in12.7 mm
05:30 AM 36.8°F2.7°C 34.7°F1.5°C 92% 3.0 mph NW4.8 kmh NW 10.0 mph16.1 kmh 29.44 in997.0 mb 0.01 in0.3 mm 0.00 in/hr0.0 mm/hr 0.50 in12.7 mm
05:20 AM 36.6°F2.6°C 34.5°F1.4°C 92% 3.0 mph N4.8 kmh N 7.0 mph11.3 kmh 29.44 in997.0 mb 0.01 in0.3 mm 0.00 in/hr0.0 mm/hr 0.50 in12.7 mm
05:10 AM 36.5°F2.5°C 34.4°F1.3°C 92% 5.0 mph NNW8.0 kmh NNW 14.0 mph22.5 kmh 29.44 in997.0 mb 0.01 in0.3 mm 0.00 in/hr0.0 mm/hr 0.50 in12.7 mm
05:00 AM 36.2°F2.3°C 34.4°F1.3°C 93% 5.0 mph NNW8.0 kmh NNW 21.0 mph33.8 kmh 29.43 in996.6 mb 0.01 in0.3 mm 0.00 in/hr0.0 mm/hr 0.50 in12.7 mm
04:50 AM 36.1°F2.3°C 34.0°F1.1°C 92% 5.0 mph NNW8.0 kmh NNW 16.0 mph25.7 kmh 29.42 in996.3 mb 0.01 in0.3 mm 0.00 in/hr0.0 mm/hr 0.50 in12.7 mm
04:40 AM 36.1°F2.3°C 34.0°F1.1°C 92% 6.0 mph NW9.7 kmh NW 16.0 mph25.7 kmh 29.42 in996.3 mb 0.02 in0.5 mm 0.00 in/hr0.0 mm/hr 0.50 in12.7 mm
04:30 AM 36.1°F2.3°C 34.3°F1.3°C 93% 6.0 mph NNW9.7 kmh NNW 16.0 mph25.7 kmh 29.41 in995.9 mb 0.02 in0.5 mm 0.00 in/hr0.0 mm/hr 0.49 in12.4 mm
04:20 AM 36.4°F2.4°C 34.3°F1.3°C 92% 6.0 mph NNW9.7 kmh NNW 18.0 mph29.0 kmh 29.41 in995.9 mb 0.03 in0.8 mm 0.00 in/hr0.0 mm/hr 0.49 in12.4 mm
04:10 AM 37.1°F2.8°C 34.7°F1.5°C 91% 4.0 mph NW6.4 kmh NW 11.0 mph17.7 kmh 29.40 in995.6 mb 0.03 in0.8 mm 0.00 in/hr0.0 mm/hr 0.49 in12.4 mm
04:00 AM 37.9°F3.3°C 35.2°F1.8°C 90% 6.0 mph NNW9.7 kmh NNW 18.0 mph29.0 kmh 29.39 in995.3 mb 0.04 in1.0 mm 0.00 in/hr0.0 mm/hr 0.49 in12.4 mm
03:50 AM 39.1°F3.9°C 36.4°F2.4°C 90% 6.0 mph NW9.7 kmh NW 20.0 mph32.2 kmh 29.38 in994.9 mb 0.04 in1.0 mm 0.06 in/hr1.5 mm/hr 0.49 in12.4 mm
03:40 AM 40.7°F4.8°C 38.3°F3.5°C 91% 5.0 mph NNW8.0 kmh NNW 24.0 mph38.6 kmh 29.37 in994.6 mb 0.03 in0.8 mm 0.06 in/hr1.5 mm/hr 0.48 in12.2 mm
03:30 AM 41.1°F5.1°C 39.0°F3.9°C 92% 5.0 mph NW8.0 kmh NW 13.0 mph20.9 kmh 29.35 in993.9 mb 0.02 in0.5 mm 0.06 in/hr1.5 mm/hr 0.47 in11.9 mm
03:20 AM 41.3°F5.2°C 39.2°F4.0°C 92% 6.0 mph NNW9.7 kmh NNW 14.0 mph22.5 kmh 29.34 in993.6 mb 0.01 in0.3 mm 0.00 in/hr0.0 mm/hr 0.46 in11.7 mm
03:10 AM 41.9°F5.5°C 39.5°F4.2°C 91% 5.0 mph NW8.0 kmh NW 13.0 mph20.9 kmh 29.33 in993.2 mb 0.02 in0.5 mm 0.06 in/hr1.5 mm/hr 0.46 in11.7 mm
03:00 AM 42.5°F5.8°C 39.8°F4.3°C 90% 6.0 mph NW9.7 kmh NW 17.0 mph27.4 kmh 29.32 in992.9 mb 0.01 in0.3 mm 0.00 in/hr0.0 mm/hr 0.45 in11.4 mm
02:50 AM 44.0°F6.7°C 41.8°F5.4°C 92% 6.0 mph NNW9.7 kmh NNW 18.0 mph29.0 kmh 29.30 in992.2 mb 0.01 in0.3 mm 0.00 in/hr0.0 mm/hr 0.45 in11.4 mm
02:40 AM 44.5°F6.9°C 42.6°F5.9°C 93% 5.0 mph NW8.0 kmh NW 12.0 mph19.3 kmh 29.28 in991.5 mb 0.01 in0.3 mm 0.00 in/hr0.0 mm/hr 0.45 in11.4 mm
02:30 AM 44.8°F7.1°C 42.9°F6.1°C 93% 4.0 mph NW6.4 kmh NW 13.0 mph20.9 kmh 29.27 in991.2 mb 0.01 in0.3 mm 0.00 in/hr0.0 mm/hr 0.45 in11.4 mm
02:20 AM 45.1°F7.3°C 43.5°F6.4°C 94% 5.0 mph NNW8.0 kmh NNW 16.0 mph25.7 kmh 29.26 in990.9 mb 0.02 in0.5 mm 0.00 in/hr0.0 mm/hr 0.45 in11.4 mm
02:10 AM 45.6°F7.6°C 43.7°F6.5°C 93% 4.0 mph NNW6.4 kmh NNW 13.0 mph20.9 kmh 29.25 in990.5 mb 0.05 in1.3 mm 0.00 in/hr0.0 mm/hr 0.44 in11.2 mm
02:00 AM 46.1°F7.8°C 43.6°F6.4°C 91% 7.0 mph NW11.3 kmh NW 18.0 mph29.0 kmh 29.25 in990.5 mb 0.11 in2.8 mm 0.00 in/hr0.0 mm/hr 0.44 in11.2 mm
01:50 AM 46.9°F8.3°C 44.4°F6.9°C 91% 5.0 mph NW8.0 kmh NW 16.0 mph25.7 kmh 29.23 in989.8 mb 0.16 in4.1 mm 0.00 in/hr0.0 mm/hr 0.44 in11.2 mm
01:40 AM 48.0°F8.9°C 45.5°F7.5°C 91% 8.0 mph NNW12.9 kmh NNW 19.0 mph30.6 kmh 29.23 in989.8 mb 0.25 in6.4 mm 0.00 in/hr0.0 mm/hr 0.44 in11.2 mm
01:30 AM 49.4°F9.7°C 47.5°F8.6°C 93% 6.0 mph NNW9.7 kmh NNW 21.0 mph33.8 kmh 29.21 in989.2 mb 0.27 in6.9 mm 0.00 in/hr0.0 mm/hr 0.44 in11.2 mm
01:20 AM 52.9°F11.6°C 50.6°F10.3°C 92% 4.0 mph NW6.4 kmh NW 15.0 mph24.1 kmh 29.20 in988.8 mb 0.30 in7.6 mm 0.00 in/hr0.0 mm/hr 0.43 in10.9 mm
01:10 AM 54.6°F12.6°C 54.0°F12.2°C 98% 2.0 mph S3.2 kmh S 6.0 mph9.7 kmh 29.18 in988.1 mb 0.36 in9.1 mm 0.18 in/hr4.6 mm/hr 0.38 in9.7 mm
01:00 AM 54.6°F12.6°C 54.0°F12.2°C 98% 2.0 mph S3.2 kmh S 7.0 mph11.3 kmh 29.18 in988.1 mb 0.33 in8.4 mm 0.05 in/hr1.3 mm/hr 0.33 in8.4 mm
12:50 AM 54.6°F12.6°C 54.0°F12.2°C 98% 1.0 mph S1.6 kmh S 5.0 mph8.0 kmh 29.18 in988.1 mb 0.29 in7.4 mm 0.54 in/hr13.7 mm/hr 0.28 in7.1 mm
12:40 AM 54.6°F12.6°C 54.0°F12.2°C 98% Calm Calm 1.0 mph1.6 kmh 29.17 in987.8 mb 0.20 in5.1 mm 0.12 in/hr3.0 mm/hr 0.19 in4.8 mm
12:30 AM 54.7°F12.6°C 54.1°F12.3°C 98% Calm Calm 1.0 mph1.6 kmh 29.18 in988.1 mb 0.18 in4.6 mm 0.24 in/hr6.1 mm/hr 0.17 in4.3 mm
12:20 AM 54.7°F12.6°C 54.1°F12.3°C 98% Calm Calm 1.0 mph1.6 kmh 29.19 in988.5 mb 0.14 in3.6 mm 0.66 in/hr16.8 mm/hr 0.13 in3.3 mm
12:10 AM 54.7°F12.6°C 54.1°F12.3°C 98% 1.0 mph SE1.6 kmh SE 2.0 mph3.2 kmh 29.19 in988.5 mb 0.03 in0.8 mm 0.12 in/hr3.0 mm/hr 0.02 in0.5 mm
12:00 AM 54.8°F12.7°C 54.2°F12.3°C 98% Calm Calm 1.0 mph1.6 kmh 29.19 in988.5 mb 0.01 in0.3 mm 0.00 in/hr0.0 mm/hr 0.01 in0.3 mm